sensor_id;sensor_type;location;lat;lon;timestamp;pressure;altitude;pressure_sealevel;temperature
60731;BMP280;46580;52.114;11.674;2023-07-16T00:00:25;100337.03;;;22.04
60731;BMP280;46580;52.114;11.674;2023-07-16T00:02:50;100337.03;;;22.04
60731;BMP280;46580;52.114;11.674;2023-07-16T00:05:16;100338.09;;;22.16
60731;BMP280;46580;52.114;11.674;2023-07-16T00:07:41;100343.13;;;22.24
60731;BMP280;46580;52.114;11.674;2023-07-16T00:10:07;100343.56;;;22.34
60731;BMP280;46580;52.114;11.674;2023-07-16T00:12:32;100342.59;;;22.47
60731;BMP280;46580;52.114;11.674;2023-07-16T00:14:58;100359.75;;;22.56
60731;BMP280;46580;52.114;11.674;2023-07-16T00:17:23;100383.13;;;22.51
60731;BMP280;46580;52.114;11.674;2023-07-16T00:19:48;100394.22;;;22.40
60731;BMP280;46580;52.114;11.674;2023-07-16T00:22:14;100399.22;;;22.23
60731;BMP280;46580;52.114;11.674;2023-07-16T00:24:39;100394.13;;;22.15
60731;BMP280;46580;52.114;11.674;2023-07-16T00:27:04;100397.13;;;22.06
60731;BMP280;46580;52.114;11.674;2023-07-16T00:29:30;100408.78;;;22.03
60731;BMP280;46580;52.114;11.674;2023-07-16T00:31:55;100409.53;;;21.91
60731;BMP280;46580;52.114;11.674;2023-07-16T00:34:20;100417.47;;;21.71
60731;BMP280;46580;52.114;11.674;2023-07-16T00:36:46;100432.56;;;21.62
60731;BMP280;46580;52.114;11.674;2023-07-16T00:39:11;100442.13;;;21.49
60731;BMP280;46580;52.114;11.674;2023-07-16T00:41:36;100449.19;;;21.49
60731;BMP280;46580;52.114;11.674;2023-07-16T00:44:02;100459.59;;;21.42
60731;BMP280;46580;52.114;11.674;2023-07-16T00:46:27;100461.78;;;21.39
60731;BMP280;46580;52.114;11.674;2023-07-16T00:48:53;100457.31;;;21.33
60731;BMP280;46580;52.114;11.674;2023-07-16T00:51:19;100461.28;;;21.29
60731;BMP280;46580;52.114;11.674;2023-07-16T00:53:47;100466.16;;;21.32
60731;BMP280;46580;52.114;11.674;2023-07-16T00:56:16;100470.91;;;21.23
60731;BMP280;46580;52.114;11.674;2023-07-16T00:58:41;100479.50;;;21.17
60731;BMP280;46580;52.114;11.674;2023-07-16T01:01:07;100482.84;;;21.11
60731;BMP280;46580;52.114;11.674;2023-07-16T01:03:32;100476.13;;;21.02
60731;BMP280;46580;52.114;11.674;2023-07-16T01:06:04;100476.38;;;21.07
60731;BMP280;46580;52.114;11.674;2023-07-16T01:08:44;100469.75;;;21.11
60731;BMP280;46580;52.114;11.674;2023-07-16T01:11:10;100459.66;;;21.22
60731;BMP280;46580;52.114;11.674;2023-07-16T01:13:36;100452.38;;;21.24
60731;BMP280;46580;52.114;11.674;2023-07-16T01:16:02;100448.78;;;21.25
60731;BMP280;46580;52.114;11.674;2023-07-16T01:18:27;100458.81;;;21.22
60731;BMP280;46580;52.114;11.674;2023-07-16T01:20:52;100456.22;;;21.22
60731;BMP280;46580;52.114;11.674;2023-07-16T01:23:56;100439.94;;;21.26
60731;BMP280;46580;52.114;11.674;2023-07-16T01:29:44;100445.75;;;21.22
60731;BMP280;46580;52.114;11.674;2023-07-16T01:32:12;100450.97;;;21.22
60731;BMP280;46580;52.114;11.674;2023-07-16T01:34:39;100449.16;;;21.22
60731;BMP280;46580;52.114;11.674;2023-07-16T01:37:05;100456.97;;;21.16
60731;BMP280;46580;52.114;11.674;2023-07-16T01:39:31;100444.25;;;21.13
60731;BMP280;46580;52.114;11.674;2023-07-16T01:41:58;100418.78;;;21.27
60731;BMP280;46580;52.114;11.674;2023-07-16T01:44:23;100402.13;;;21.35
60731;BMP280;46580;52.114;11.674;2023-07-16T01:47:19;100366.69;;;21.39
60731;BMP280;46580;52.114;11.674;2023-07-16T01:49:40;100348.97;;;21.34
60731;BMP280;46580;52.114;11.674;2023-07-16T01:52:07;100400.75;;;21.12
60731;BMP280;46580;52.114;11.674;2023-07-16T01:54:34;100406.34;;;21.09
60731;BMP280;46580;52.114;11.674;2023-07-16T01:57:00;100425.44;;;21.09
60731;BMP280;46580;52.114;11.674;2023-07-16T01:59:25;100422.19;;;21.22
60731;BMP280;46580;52.114;11.674;2023-07-16T02:01:50;100423.72;;;21.16
60731;BMP280;46580;52.114;11.674;2023-07-16T02:04:16;100399.66;;;21.27
60731;BMP280;46580;52.114;11.674;2023-07-16T02:06:41;100353.50;;;21.20
60731;BMP280;46580;52.114;11.674;2023-07-16T02:09:06;100371.28;;;21.10
60731;BMP280;46580;52.114;11.674;2023-07-16T02:11:32;100392.00;;;21.05
60731;BMP280;46580;52.114;11.674;2023-07-16T02:13:57;100397.47;;;21.10
60731;BMP280;46580;52.114;11.674;2023-07-16T02:16:23;100389.09;;;21.14
60731;BMP280;46580;52.114;11.674;2023-07-16T02:18:48;100386.28;;;21.16
60731;BMP280;46580;52.114;11.674;2023-07-16T02:21:13;100367.97;;;21.16
60731;BMP280;46580;52.114;11.674;2023-07-16T02:23:39;100363.91;;;21.13
60731;BMP280;46580;52.114;11.674;2023-07-16T02:26:04;100363.44;;;21.10
60731;BMP280;46580;52.114;11.674;2023-07-16T02:28:30;100368.34;;;21.13
60731;BMP280;46580;52.114;11.674;2023-07-16T02:30:55;100372.91;;;21.11
60731;BMP280;46580;52.114;11.674;2023-07-16T02:33:21;100370.47;;;21.09
60731;BMP280;46580;52.114;11.674;2023-07-16T02:35:47;100378.00;;;21.12
60731;BMP280;46580;52.114;11.674;2023-07-16T02:38:14;100407.13;;;21.09
60731;BMP280;46580;52.114;11.674;2023-07-16T02:40:47;100422.78;;;21.03
60731;BMP280;46580;52.114;11.674;2023-07-16T02:43:13;100425.91;;;20.92
60731;BMP280;46580;52.114;11.674;2023-07-16T02:45:39;100433.25;;;21.03
60731;BMP280;46580;52.114;11.674;2023-07-16T02:48:07;100446.78;;;20.86
60731;BMP280;46580;52.114;11.674;2023-07-16T02:50:34;100455.56;;;20.79
60731;BMP280;46580;52.114;11.674;2023-07-16T02:53:00;100440.63;;;20.73
60731;BMP280;46580;52.114;11.674;2023-07-16T02:55:26;100433.69;;;20.86
60731;BMP280;46580;52.114;11.674;2023-07-16T02:57:51;100446.66;;;20.73
60731;BMP280;46580;52.114;11.674;2023-07-16T03:00:16;100444.69;;;20.75
60731;BMP280;46580;52.114;11.674;2023-07-16T03:02:42;100455.91;;;20.76
60731;BMP280;46580;52.114;11.674;2023-07-16T03:05:07;100438.69;;;20.81
60731;BMP280;46580;52.114;11.674;2023-07-16T03:07:33;100431.44;;;20.83
60731;BMP280;46580;52.114;11.674;2023-07-16T03:09:58;100415.88;;;20.96
60731;BMP280;46580;52.114;11.674;2023-07-16T03:12:24;100422.94;;;20.95
60731;BMP280;46580;52.114;11.674;2023-07-16T03:14:50;100411.50;;;21.03
60731;BMP280;46580;52.114;11.674;2023-07-16T03:17:16;100407.66;;;20.99
60731;BMP280;46580;52.114;11.674;2023-07-16T03:19:44;100416.25;;;20.93
60731;BMP280;46580;52.114;11.674;2023-07-16T03:22:11;100420.78;;;21.05
60731;BMP280;46580;52.114;11.674;2023-07-16T03:24:36;100415.56;;;21.05
60731;BMP280;46580;52.114;11.674;2023-07-16T03:27:02;100428.63;;;21.05
60731;BMP280;46580;52.114;11.674;2023-07-16T03:29:27;100425.78;;;21.00
60731;BMP280;46580;52.114;11.674;2023-07-16T03:31:52;100444.47;;;20.97
60731;BMP280;46580;52.114;11.674;2023-07-16T03:34:18;100470.50;;;20.85
60731;BMP280;46580;52.114;11.674;2023-07-16T03:36:43;100467.31;;;20.89
60731;BMP280;46580;52.114;11.674;2023-07-16T03:39:08;100475.44;;;20.94
60731;BMP280;46580;52.114;11.674;2023-07-16T03:41:34;100462.72;;;20.91
60731;BMP280;46580;52.114;11.674;2023-07-16T03:43:59;100454.81;;;20.85
60731;BMP280;46580;52.114;11.674;2023-07-16T03:46:24;100454.81;;;20.85
60731;BMP280;46580;52.114;11.674;2023-07-16T03:48:51;100436.75;;;20.89
60731;BMP280;46580;52.114;11.674;2023-07-16T03:51:16;100439.69;;;21.01
60731;BMP280;46580;52.114;11.674;2023-07-16T03:53:42;100465.66;;;21.02
60731;BMP280;46580;52.114;11.674;2023-07-16T03:56:07;100458.22;;;21.05
60731;BMP280;46580;52.114;11.674;2023-07-16T03:58:33;100460.34;;;20.96
60731;BMP280;46580;52.114;11.674;2023-07-16T04:00:58;100472.13;;;21.06
60731;BMP280;46580;52.114;11.674;2023-07-16T04:03:23;100461.19;;;21.17
60731;BMP280;46580;52.114;11.674;2023-07-16T04:05:50;100459.94;;;21.13
60731;BMP280;46580;52.114;11.674;2023-07-16T04:08:16;100471.50;;;21.04
60731;BMP280;46580;52.114;11.674;2023-07-16T04:10:41;100506.44;;;20.97
60731;BMP280;46580;52.114;11.674;2023-07-16T04:13:06;100515.63;;;20.86
60731;BMP280;46580;52.114;11.674;2023-07-16T04:15:32;100505.56;;;20.90
60731;BMP280;46580;52.114;11.674;2023-07-16T04:17:57;100523.06;;;20.89
60731;BMP280;46580;52.114;11.674;2023-07-16T04:20:22;100521.84;;;20.86
60731;BMP280;46580;52.114;11.674;2023-07-16T04:22:48;100517.53;;;20.78
60731;BMP280;46580;52.114;11.674;2023-07-16T04:25:14;100532.00;;;20.74
60731;BMP280;46580;52.114;11.674;2023-07-16T04:27:40;100523.41;;;20.80
60731;BMP280;46580;52.114;11.674;2023-07-16T04:30:10;100529.94;;;20.90
60731;BMP280;46580;52.114;11.674;2023-07-16T04:32:35;100536.56;;;20.86
60731;BMP280;46580;52.114;11.674;2023-07-16T04:35:01;100530.69;;;20.85
60731;BMP280;46580;52.114;11.674;2023-07-16T04:37:26;100522.09;;;20.90
60731;BMP280;46580;52.114;11.674;2023-07-16T04:39:51;100519.13;;;20.93
60731;BMP280;46580;52.114;11.674;2023-07-16T04:42:17;100522.38;;;20.95
60731;BMP280;46580;52.114;11.674;2023-07-16T04:44:42;100531.69;;;20.84
60731;BMP280;46580;52.114;11.674;2023-07-16T04:47:08;100532.41;;;20.78
60731;BMP280;46580;52.114;11.674;2023-07-16T04:49:34;100535.66;;;20.80
60731;BMP280;46580;52.114;11.674;2023-07-16T04:52:01;100538.91;;;20.82
60731;BMP280;46580;52.114;11.674;2023-07-16T04:54:26;100543.41;;;20.87
60731;BMP280;46580;52.114;11.674;2023-07-16T04:56:51;100547.66;;;20.88
60731;BMP280;46580;52.114;11.674;2023-07-16T04:59:17;100556.00;;;20.98
60731;BMP280;46580;52.114;11.674;2023-07-16T05:01:42;100554.25;;;21.05
60731;BMP280;46580;52.114;11.674;2023-07-16T05:04:07;100551.22;;;21.16
60731;BMP280;46580;52.114;11.674;2023-07-16T05:06:33;100561.28;;;21.19
60731;BMP280;46580;52.114;11.674;2023-07-16T05:08:58;100563.16;;;21.24
60731;BMP280;46580;52.114;11.674;2023-07-16T05:11:24;100567.22;;;21.27
60731;BMP280;46580;52.114;11.674;2023-07-16T05:13:50;100572.88;;;21.30
60731;BMP280;46580;52.114;11.674;2023-07-16T05:16:16;100572.94;;;21.37
60731;BMP280;46580;52.114;11.674;2023-07-16T05:18:41;100591.22;;;21.51
60731;BMP280;46580;52.114;11.674;2023-07-16T05:21:08;100595.63;;;21.50
60731;BMP280;46580;52.114;11.674;2023-07-16T05:23:33;100602.31;;;21.53
60731;BMP280;46580;52.114;11.674;2023-07-16T05:25:59;100604.56;;;21.56
60731;BMP280;46580;52.114;11.674;2023-07-16T05:28:24;100610.63;;;21.56
60731;BMP280;46580;52.114;11.674;2023-07-16T05:30:58;100616.66;;;21.57
60731;BMP280;46580;52.114;11.674;2023-07-16T05:33:23;100615.78;;;21.50
60731;BMP280;46580;52.114;11.674;2023-07-16T05:35:49;100621.75;;;21.44
60731;BMP280;46580;52.114;11.674;2023-07-16T05:38:15;100627.38;;;21.41
60731;BMP280;46580;52.114;11.674;2023-07-16T05:40:41;100623.78;;;21.42
60731;BMP280;46580;52.114;11.674;2023-07-16T05:43:06;100615.72;;;21.43
60731;BMP280;46580;52.114;11.674;2023-07-16T05:45:32;100621.28;;;21.34
60731;BMP280;46580;52.114;11.674;2023-07-16T05:47:57;100619.66;;;21.33
60731;BMP280;46580;52.114;11.674;2023-07-16T05:50:22;100615.41;;;21.53
60731;BMP280;46580;52.114;11.674;2023-07-16T05:52:48;100623.56;;;21.64
60731;BMP280;46580;52.114;11.674;2023-07-16T05:55:14;100637.81;;;21.76
60731;BMP280;46580;52.114;11.674;2023-07-16T05:57:39;100646.84;;;21.73
60731;BMP280;46580;52.114;11.674;2023-07-16T06:00:06;100641.59;;;21.73
60731;BMP280;46580;52.114;11.674;2023-07-16T06:02:32;100644.59;;;21.70
60731;BMP280;46580;52.114;11.674;2023-07-16T06:04:57;100657.63;;;21.84
60731;BMP280;46580;52.114;11.674;2023-07-16T06:07:22;100656.16;;;21.96
60731;BMP280;46580;52.114;11.674;2023-07-16T06:09:48;100662.13;;;22.11
60731;BMP280;46580;52.114;11.674;2023-07-16T06:12:13;100660.69;;;22.08
60731;BMP280;46580;52.114;11.674;2023-07-16T06:14:39;100661.03;;;21.99
60731;BMP280;46580;52.114;11.674;2023-07-16T06:17:05;100662.53;;;21.87
60731;BMP280;46580;52.114;11.674;2023-07-16T06:19:30;100668.84;;;21.79
60731;BMP280;46580;52.114;11.674;2023-07-16T06:21:56;100676.31;;;21.75
60731;BMP280;46580;52.114;11.674;2023-07-16T06:24:21;100678.97;;;21.81
60731;BMP280;46580;52.114;11.674;2023-07-16T06:26:47;100670.28;;;21.95
60731;BMP280;46580;52.114;11.674;2023-07-16T06:29:13;100675.16;;;22.04
60731;BMP280;46580;52.114;11.674;2023-07-16T06:31:38;100684.84;;;22.04
60731;BMP280;46580;52.114;11.674;2023-07-16T06:34:04;100682.56;;;21.95
60731;BMP280;46580;52.114;11.674;2023-07-16T06:36:29;100689.56;;;21.88
60731;BMP280;46580;52.114;11.674;2023-07-16T06:38:54;100699.22;;;21.87
60731;BMP280;46580;52.114;11.674;2023-07-16T06:41:20;100700.31;;;21.79
60731;BMP280;46580;52.114;11.674;2023-07-16T06:43:54;100714.72;;;21.68
60731;BMP280;46580;52.114;11.674;2023-07-16T06:46:20;100710.84;;;21.85
60731;BMP280;46580;52.114;11.674;2023-07-16T06:48:45;100711.88;;;22.04
60731;BMP280;46580;52.114;11.674;2023-07-16T06:51:10;100717.72;;;22.27
60731;BMP280;46580;52.114;11.674;2023-07-16T06:53:36;100712.50;;;22.27
60731;BMP280;46580;52.114;11.674;2023-07-16T06:56:01;100712.13;;;22.30
60731;BMP280;46580;52.114;11.674;2023-07-16T06:58:33;100710.53;;;22.35
60731;BMP280;46580;52.114;11.674;2023-07-16T07:00:59;100718.22;;;22.36
60731;BMP280;46580;52.114;11.674;2023-07-16T07:03:24;100724.38;;;22.50
60731;BMP280;46580;52.114;11.674;2023-07-16T07:05:49;100720.56;;;22.79
60731;BMP280;46580;52.114;11.674;2023-07-16T07:08:15;100715.03;;;23.01
60731;BMP280;46580;52.114;11.674;2023-07-16T07:10:40;100718.31;;;23.09
60731;BMP280;46580;52.114;11.674;2023-07-16T07:13:06;100724.44;;;23.22
60731;BMP280;46580;52.114;11.674;2023-07-16T07:15:31;100715.25;;;23.06
60731;BMP280;46580;52.114;11.674;2023-07-16T07:17:57;100726.00;;;23.11
60731;BMP280;46580;52.114;11.674;2023-07-16T07:20:22;100717.81;;;22.93
60731;BMP280;46580;52.114;11.674;2023-07-16T07:22:47;100714.25;;;23.07
60731;BMP280;46580;52.114;11.674;2023-07-16T07:25:13;100711.31;;;23.22
60731;BMP280;46580;52.114;11.674;2023-07-16T07:27:38;100717.91;;;23.12
60731;BMP280;46580;52.114;11.674;2023-07-16T07:30:04;100712.56;;;23.26
60731;BMP280;46580;52.114;11.674;2023-07-16T07:32:30;100724.81;;;23.19
60731;BMP280;46580;52.114;11.674;2023-07-16T07:34:55;100733.25;;;23.09
60731;BMP280;46580;52.114;11.674;2023-07-16T07:37:20;100731.97;;;22.98
60731;BMP280;46580;52.114;11.674;2023-07-16T07:39:51;100731.34;;;22.90
60731;BMP280;46580;52.114;11.674;2023-07-16T07:42:17;100726.69;;;22.92
60731;BMP280;46580;52.114;11.674;2023-07-16T07:44:42;100725.47;;;22.88
60731;BMP280;46580;52.114;11.674;2023-07-16T07:47:07;100729.38;;;22.72
60731;BMP280;46580;52.114;11.674;2023-07-16T07:49:33;100735.56;;;22.58
60731;BMP280;46580;52.114;11.674;2023-07-16T07:52:00;100729.16;;;22.67
60731;BMP280;46580;52.114;11.674;2023-07-16T07:54:25;100734.69;;;23.11
60731;BMP280;46580;52.114;11.674;2023-07-16T07:56:51;100719.06;;;23.30
60731;BMP280;46580;52.114;11.674;2023-07-16T07:59:16;100723.34;;;23.44
60731;BMP280;46580;52.114;11.674;2023-07-16T08:01:41;100725.84;;;23.58
60731;BMP280;46580;52.114;11.674;2023-07-16T08:04:07;100723.81;;;23.66
60731;BMP280;46580;52.114;11.674;2023-07-16T08:06:32;100721.81;;;23.81
60731;BMP280;46580;52.114;11.674;2023-07-16T08:08:57;100722.31;;;24.03
60731;BMP280;46580;52.114;11.674;2023-07-16T08:11:23;100734.47;;;24.17
60731;BMP280;46580;52.114;11.674;2023-07-16T08:13:49;100730.81;;;24.30
60731;BMP280;46580;52.114;11.674;2023-07-16T08:16:14;100729.81;;;24.25
60731;BMP280;46580;52.114;11.674;2023-07-16T08:18:39;100735.47;;;24.41
60731;BMP280;46580;52.114;11.674;2023-07-16T08:21:05;100727.19;;;24.19
60731;BMP280;46580;52.114;11.674;2023-07-16T08:23:33;100738.41;;;23.75
60731;BMP280;46580;52.114;11.674;2023-07-16T08:25:58;100745.63;;;23.60
60731;BMP280;46580;52.114;11.674;2023-07-16T08:28:24;100744.03;;;23.72
60731;BMP280;46580;52.114;11.674;2023-07-16T08:30:49;100751.75;;;23.80
60731;BMP280;46580;52.114;11.674;2023-07-16T08:33:15;100752.94;;;23.65
60731;BMP280;46580;52.114;11.674;2023-07-16T08:35:41;100759.06;;;23.84
60731;BMP280;46580;52.114;11.674;2023-07-16T08:38:06;100754.88;;;24.08
60731;BMP280;46580;52.114;11.674;2023-07-16T08:40:38;100759.56;;;24.38
60731;BMP280;46580;52.114;11.674;2023-07-16T08:43:05;100749.63;;;24.53
60731;BMP280;46580;52.114;11.674;2023-07-16T08:45:35;100755.75;;;24.79
60731;BMP280;46580;52.114;11.674;2023-07-16T08:48:05;100759.97;;;24.73
60731;BMP280;46580;52.114;11.674;2023-07-16T08:50:30;100757.97;;;24.69
60731;BMP280;46580;52.114;11.674;2023-07-16T08:52:57;100757.16;;;24.68
60731;BMP280;46580;52.114;11.674;2023-07-16T08:55:22;100759.19;;;24.79
60731;BMP280;46580;52.114;11.674;2023-07-16T08:57:48;100752.66;;;24.94
60731;BMP280;46580;52.114;11.674;2023-07-16T09:00:14;100753.69;;;24.99
60731;BMP280;46580;52.114;11.674;2023-07-16T09:02:40;100751.63;;;24.95
60731;BMP280;46580;52.114;11.674;2023-07-16T09:05:07;100754.88;;;24.97
60731;BMP280;46580;52.114;11.674;2023-07-16T09:07:35;100763.41;;;24.99
60731;BMP280;46580;52.114;11.674;2023-07-16T09:10:01;100740.84;;;25.16
60731;BMP280;46580;52.114;11.674;2023-07-16T09:12:27;100756.22;;;25.31
60731;BMP280;46580;52.114;11.674;2023-07-16T09:14:53;100752.44;;;25.64
60731;BMP280;46580;52.114;11.674;2023-07-16T09:17:25;100760.38;;;26.00
60731;BMP280;46580;52.114;11.674;2023-07-16T09:19:51;100756.75;;;25.52
60731;BMP280;46580;52.114;11.674;2023-07-16T09:22:22;100764.91;;;25.44
60731;BMP280;46580;52.114;11.674;2023-07-16T09:24:48;100767.09;;;25.47
60731;BMP280;46580;52.114;11.674;2023-07-16T09:27:14;100757.34;;;25.97
60731;BMP280;46580;52.114;11.674;2023-07-16T09:29:39;100758.75;;;25.99
60731;BMP280;46580;52.114;11.674;2023-07-16T09:32:05;100768.38;;;25.38
60731;BMP280;46580;52.114;11.674;2023-07-16T09:34:31;100765.19;;;25.24
60731;BMP280;46580;52.114;11.674;2023-07-16T09:36:58;100767.34;;;25.46
60731;BMP280;46580;52.114;11.674;2023-07-16T09:39:25;100762.59;;;25.67
60731;BMP280;46580;52.114;11.674;2023-07-16T09:41:51;100770.50;;;25.67
60731;BMP280;46580;52.114;11.674;2023-07-16T09:44:17;100768.63;;;25.73
60731;BMP280;46580;52.114;11.674;2023-07-16T09:46:44;100769.47;;;25.61
60731;BMP280;46580;52.114;11.674;2023-07-16T09:49:09;100759.22;;;25.84
60731;BMP280;46580;52.114;11.674;2023-07-16T09:51:36;100775.66;;;25.92
60731;BMP280;46580;52.114;11.674;2023-07-16T09:54:02;100771.38;;;25.91
60731;BMP280;46580;52.114;11.674;2023-07-16T09:56:34;100764.28;;;25.92
60731;BMP280;46580;52.114;11.674;2023-07-16T09:59:01;100774.31;;;26.13
60731;BMP280;46580;52.114;11.674;2023-07-16T10:01:28;100780.13;;;25.85
60731;BMP280;46580;52.114;11.674;2023-07-16T10:03:54;100776.09;;;26.19
60731;BMP280;46580;52.114;11.674;2023-07-16T10:06:19;100775.72;;;26.10
60731;BMP280;46580;52.114;11.674;2023-07-16T10:08:49;100783.00;;;25.77
60731;BMP280;46580;52.114;11.674;2023-07-16T10:11:18;100776.63;;;25.48
60731;BMP280;46580;52.114;11.674;2023-07-16T10:13:50;100773.06;;;25.79
60731;BMP280;46580;52.114;11.674;2023-07-16T10:16:22;100769.94;;;26.25
60731;BMP280;46580;52.114;11.674;2023-07-16T10:18:52;100770.59;;;26.45
60731;BMP280;46580;52.114;11.674;2023-07-16T10:21:23;100781.91;;;26.28
60731;BMP280;46580;52.114;11.674;2023-07-16T10:23:59;100779.41;;;26.63
60731;BMP280;46580;52.114;11.674;2023-07-16T10:26:29;100775.34;;;26.67
60731;BMP280;46580;52.114;11.674;2023-07-16T10:28:54;100781.94;;;26.51
60731;BMP280;46580;52.114;11.674;2023-07-16T10:31:24;100786.03;;;25.74
60731;BMP280;46580;52.114;11.674;2023-07-16T10:34:04;100782.72;;;25.49
60731;BMP280;46580;52.114;11.674;2023-07-16T10:36:30;100778.34;;;25.79
60731;BMP280;46580;52.114;11.674;2023-07-16T10:39:03;100776.59;;;26.04
60731;BMP280;46580;52.114;11.674;2023-07-16T10:41:30;100769.56;;;26.22
60731;BMP280;46580;52.114;11.674;2023-07-16T10:43:56;100774.78;;;26.28
60731;BMP280;46580;52.114;11.674;2023-07-16T10:46:23;100779.75;;;26.72
60731;BMP280;46580;52.114;11.674;2023-07-16T10:48:48;100782.47;;;26.84
60731;BMP280;46580;52.114;11.674;2023-07-16T10:51:15;100784.91;;;26.85
60731;BMP280;46580;52.114;11.674;2023-07-16T10:53:42;100783.06;;;26.86
60731;BMP280;46580;52.114;11.674;2023-07-16T10:56:07;100773.66;;;26.48
60731;BMP280;46580;52.114;11.674;2023-07-16T10:58:33;100792.47;;;26.82
60731;BMP280;46580;52.114;11.674;2023-07-16T11:00:58;100770.53;;;26.57
60731;BMP280;46580;52.114;11.674;2023-07-16T11:05:49;100783.31;;;26.60
60731;BMP280;46580;52.114;11.674;2023-07-16T11:08:24;100784.41;;;26.70
60731;BMP280;46580;52.114;11.674;2023-07-16T11:10:56;100784.41;;;26.94
60731;BMP280;46580;52.114;11.674;2023-07-16T11:13:30;100790.31;;;26.72
60731;BMP280;46580;52.114;11.674;2023-07-16T11:15:56;100781.72;;;26.77
60731;BMP280;46580;52.114;11.674;2023-07-16T11:18:23;100784.28;;;26.66
60731;BMP280;46580;52.114;11.674;2023-07-16T11:20:53;100779.28;;;26.75
60731;BMP280;46580;52.114;11.674;2023-07-16T11:23:19;100779.06;;;27.01
60731;BMP280;46580;52.114;11.674;2023-07-16T11:25:48;100782.84;;;27.11
60731;BMP280;46580;52.114;11.674;2023-07-16T11:28:14;100774.91;;;27.11
60731;BMP280;46580;52.114;11.674;2023-07-16T11:30:39;100783.75;;;26.99
60731;BMP280;46580;52.114;11.674;2023-07-16T11:33:10;100777.34;;;27.12
60731;BMP280;46580;52.114;11.674;2023-07-16T11:35:36;100771.34;;;26.99
60731;BMP280;46580;52.114;11.674;2023-07-16T11:38:03;100773.59;;;27.20
60731;BMP280;46580;52.114;11.674;2023-07-16T11:40:29;100784.16;;;27.20
60731;BMP280;46580;52.114;11.674;2023-07-16T11:42:54;100770.34;;;27.18
60731;BMP280;46580;52.114;11.674;2023-07-16T11:45:22;100776.16;;;27.08
60731;BMP280;46580;52.114;11.674;2023-07-16T11:47:53;100762.06;;;27.32
60731;BMP280;46580;52.114;11.674;2023-07-16T11:50:19;100757.22;;;27.46
60731;BMP280;46580;52.114;11.674;2023-07-16T11:52:55;100750.59;;;27.55
60731;BMP280;46580;52.114;11.674;2023-07-16T11:55:21;100752.59;;;27.42
60731;BMP280;46580;52.114;11.674;2023-07-16T11:57:46;100749.53;;;27.56
60731;BMP280;46580;52.114;11.674;2023-07-16T12:00:11;100753.88;;;27.51
60731;BMP280;46580;52.114;11.674;2023-07-16T12:02:37;100768.72;;;27.52
60731;BMP280;46580;52.114;11.674;2023-07-16T12:05:03;100761.16;;;27.73
60731;BMP280;46580;52.114;11.674;2023-07-16T12:07:33;100753.97;;;27.91
60731;BMP280;46580;52.114;11.674;2023-07-16T12:09:59;100762.09;;;27.78
60731;BMP280;46580;52.114;11.674;2023-07-16T12:12:24;100764.75;;;27.78
60731;BMP280;46580;52.114;11.674;2023-07-16T12:14:49;100773.09;;;27.93
60731;BMP280;46580;52.114;11.674;2023-07-16T12:17:15;100761.91;;;28.19
60731;BMP280;46580;52.114;11.674;2023-07-16T12:19:40;100765.31;;;28.49
60731;BMP280;46580;52.114;11.674;2023-07-16T12:22:05;100768.22;;;27.90
60731;BMP280;46580;52.114;11.674;2023-07-16T12:24:31;100762.91;;;28.07
60731;BMP280;46580;52.114;11.674;2023-07-16T12:26:59;100765.19;;;28.04
60731;BMP280;46580;52.114;11.674;2023-07-16T12:29:24;100765.16;;;28.21
60731;BMP280;46580;52.114;11.674;2023-07-16T12:31:49;100778.09;;;28.12
60731;BMP280;46580;52.114;11.674;2023-07-16T12:34:15;100780.31;;;28.15
60731;BMP280;46580;52.114;11.674;2023-07-16T12:36:40;100770.03;;;28.07
60731;BMP280;46580;52.114;11.674;2023-07-16T12:39:05;100769.03;;;27.26
60731;BMP280;46580;52.114;11.674;2023-07-16T12:41:31;100770.69;;;27.56
60731;BMP280;46580;52.114;11.674;2023-07-16T12:43:56;100763.94;;;27.78
60731;BMP280;46580;52.114;11.674;2023-07-16T12:46:21;100762.66;;;28.37
60731;BMP280;46580;52.114;11.674;2023-07-16T12:48:47;100768.53;;;28.39
60731;BMP280;46580;52.114;11.674;2023-07-16T12:51:12;100759.22;;;28.48
60731;BMP280;46580;52.114;11.674;2023-07-16T12:53:37;100762.78;;;28.42
60731;BMP280;46580;52.114;11.674;2023-07-16T12:56:03;100778.53;;;28.37
60731;BMP280;46580;52.114;11.674;2023-07-16T12:58:29;100780.66;;;28.18
60731;BMP280;46580;52.114;11.674;2023-07-16T13:00:54;100765.78;;;28.17
60731;BMP280;46580;52.114;11.674;2023-07-16T13:03:19;100766.22;;;28.32
60731;BMP280;46580;52.114;11.674;2023-07-16T13:05:46;100765.50;;;28.87
60731;BMP280;46580;52.114;11.674;2023-07-16T13:08:12;100757.19;;;28.95
60731;BMP280;46580;52.114;11.674;2023-07-16T13:10:38;100774.78;;;29.12
60731;BMP280;46580;52.114;11.674;2023-07-16T13:13:04;100775.16;;;29.15
60731;BMP280;46580;52.114;11.674;2023-07-16T13:15:30;100771.94;;;28.91
60731;BMP280;46580;52.114;11.674;2023-07-16T13:17:55;100766.97;;;29.17
60731;BMP280;46580;52.114;11.674;2023-07-16T13:20:21;100764.31;;;29.06
60731;BMP280;46580;52.114;11.674;2023-07-16T13:22:47;100772.69;;;29.25
60731;BMP280;46580;52.114;11.674;2023-07-16T13:25:12;100764.53;;;29.38
60731;BMP280;46580;52.114;11.674;2023-07-16T13:27:37;100773.75;;;29.35
60731;BMP280;46580;52.114;11.674;2023-07-16T13:30:03;100777.25;;;29.02
60731;BMP280;46580;52.114;11.674;2023-07-16T13:32:29;100778.72;;;29.10
60731;BMP280;46580;52.114;11.674;2023-07-16T13:34:54;100779.06;;;28.57
60731;BMP280;46580;52.114;11.674;2023-07-16T13:37:19;100785.19;;;28.91
60731;BMP280;46580;52.114;11.674;2023-07-16T13:39:45;100785.41;;;29.01
60731;BMP280;46580;52.114;11.674;2023-07-16T13:42:10;100782.75;;;29.12
60731;BMP280;46580;52.114;11.674;2023-07-16T13:44:36;100786.22;;;29.12